sensor_id;sensor_type;location;lat;lon;timestamp;temperature;humidity
22065;DHT22;11197;53.110;8.468;2022-12-07T00:01:39;4.50;99.90
22065;DHT22;11197;53.110;8.468;2022-12-07T00:04:07;4.50;99.90
22065;DHT22;11197;53.110;8.468;2022-12-07T00:06:38;4.50;99.90
22065;DHT22;11197;53.110;8.468;2022-12-07T00:09:08;4.50;99.90
22065;DHT22;11197;53.110;8.468;2022-12-07T00:11:35;4.50;99.90
22065;DHT22;11197;53.110;8.468;2022-12-07T00:14:04;4.50;99.90
22065;DHT22;11197;53.110;8.468;2022-12-07T00:16:32;4.50;99.90
22065;DHT22;11197;53.110;8.468;2022-12-07T00:18:59;4.50;99.90
22065;DHT22;11197;53.110;8.468;2022-12-07T00:21:30;4.50;99.90
22065;DHT22;11197;53.110;8.468;2022-12-07T00:23:57;4.50;99.90
22065;DHT22;11197;53.110;8.468;2022-12-07T00:26:27;4.50;99.90
22065;DHT22;11197;53.110;8.468;2022-12-07T00:28:55;4.50;99.90
22065;DHT22;11197;53.110;8.468;2022-12-07T00:31:24;4.50;99.90
22065;DHT22;11197;53.110;8.468;2022-12-07T00:33:51;4.50;99.90
22065;DHT22;11197;53.110;8.468;2022-12-07T00:36:20;4.50;99.90
22065;DHT22;11197;53.110;8.468;2022-12-07T00:38:48;4.50;99.90
22065;DHT22;11197;53.110;8.468;2022-12-07T00:41:20;4.50;99.90
22065;DHT22;11197;53.110;8.468;2022-12-07T00:43:47;4.50;99.90
22065;DHT22;11197;53.110;8.468;2022-12-07T00:46:18;4.50;99.90
22065;DHT22;11197;53.110;8.468;2022-12-07T00:48:45;4.50;99.90
22065;DHT22;11197;53.110;8.468;2022-12-07T00:51:12;4.50;99.90
22065;DHT22;11197;53.110;8.468;2022-12-07T00:53:39;4.50;99.90
22065;DHT22;11197;53.110;8.468;2022-12-07T00:56:10;4.50;99.90
22065;DHT22;11197;53.110;8.468;2022-12-07T00:58:36;4.50;99.90
22065;DHT22;11197;53.110;8.468;2022-12-07T01:01:04;4.50;99.90
22065;DHT22;11197;53.110;8.468;2022-12-07T01:03:30;4.50;99.90
22065;DHT22;11197;53.110;8.468;2022-12-07T01:05:56;4.50;99.90
22065;DHT22;11197;53.110;8.468;2022-12-07T01:08:24;4.50;99.90
22065;DHT22;11197;53.110;8.468;2022-12-07T01:11:00;4.50;99.90
22065;DHT22;11197;53.110;8.468;2022-12-07T01:13:27;4.50;99.90
22065;DHT22;11197;53.110;8.468;2022-12-07T01:15:57;4.50;99.90
22065;DHT22;11197;53.110;8.468;2022-12-07T01:18:27;4.50;99.90
22065;DHT22;11197;53.110;8.468;2022-12-07T01:21:01;4.40;99.90
22065;DHT22;11197;53.110;8.468;2022-12-07T01:23:28;4.50;99.90
22065;DHT22;11197;53.110;8.468;2022-12-07T01:25:58;4.50;99.90
22065;DHT22;11197;53.110;8.468;2022-12-07T01:28:26;4.40;99.90
22065;DHT22;11197;53.110;8.468;2022-12-07T01:33:22;4.40;99.90
22065;DHT22;11197;53.110;8.468;2022-12-07T01:35:48;4.40;99.90
22065;DHT22;11197;53.110;8.468;2022-12-07T01:38:14;4.40;99.90
22065;DHT22;11197;53.110;8.468;2022-12-07T01:40:40;4.40;99.90
22065;DHT22;11197;53.110;8.468;2022-12-07T01:43:26;4.40;99.90
22065;DHT22;11197;53.110;8.468;2022-12-07T01:45:54;4.30;99.90
22065;DHT22;11197;53.110;8.468;2022-12-07T01:50:56;4.30;99.90
22065;DHT22;11197;53.110;8.468;2022-12-07T01:53:27;4.30;99.90
22065;DHT22;11197;53.110;8.468;2022-12-07T01:55:55;4.30;99.90
22065;DHT22;11197;53.110;8.468;2022-12-07T01:58:25;4.20;99.90
22065;DHT22;11197;53.110;8.468;2022-12-07T02:00:51;4.20;99.90
22065;DHT22;11197;53.110;8.468;2022-12-07T02:03:42;4.20;99.90
22065;DHT22;11197;53.110;8.468;2022-12-07T02:06:10;4.20;99.90
22065;DHT22;11197;53.110;8.468;2022-12-07T02:08:37;4.20;99.90
22065;DHT22;11197;53.110;8.468;2022-12-07T02:11:04;4.20;99.90
22065;DHT22;11197;53.110;8.468;2022-12-07T02:13:32;4.20;99.90
22065;DHT22;11197;53.110;8.468;2022-12-07T02:16:21;4.10;99.90
22065;DHT22;11197;53.110;8.468;2022-12-07T02:19:14;4.10;99.90
22065;DHT22;11197;53.110;8.468;2022-12-07T02:30:20;4.00;99.90
22065;DHT22;11197;53.110;8.468;2022-12-07T02:33:05;4.00;99.90
22065;DHT22;11197;53.110;8.468;2022-12-07T02:35:40;4.00;99.90
22065;DHT22;11197;53.110;8.468;2022-12-07T02:40:55;4.10;99.90
22065;DHT22;11197;53.110;8.468;2022-12-07T02:46:16;4.10;99.90
22065;DHT22;11197;53.110;8.468;2022-12-07T02:48:43;4.10;99.90
22065;DHT22;11197;53.110;8.468;2022-12-07T02:51:10;4.10;99.90
22065;DHT22;11197;53.110;8.468;2022-12-07T02:53:41;4.10;99.90
22065;DHT22;11197;53.110;8.468;2022-12-07T03:05:00;4.10;99.90
22065;DHT22;11197;53.110;8.468;2022-12-07T03:10:22;4.10;99.90
22065;DHT22;11197;53.110;8.468;2022-12-07T03:16:05;4.10;99.90
22065;DHT22;11197;53.110;8.468;2022-12-07T03:18:38;4.10;99.90
22065;DHT22;11197;53.110;8.468;2022-12-07T03:21:14;4.10;99.90
22065;DHT22;11197;53.110;8.468;2022-12-07T03:23:43;4.10;99.90
22065;DHT22;11197;53.110;8.468;2022-12-07T03:26:12;4.10;99.90
22065;DHT22;11197;53.110;8.468;2022-12-07T03:28:44;4.10;99.90
22065;DHT22;11197;53.110;8.468;2022-12-07T03:31:25;4.10;99.90
22065;DHT22;11197;53.110;8.468;2022-12-07T03:34:06;4.10;99.90
22065;DHT22;11197;53.110;8.468;2022-12-07T03:36:55;4.10;99.90
22065;DHT22;11197;53.110;8.468;2022-12-07T03:39:46;4.10;99.90
22065;DHT22;11197;53.110;8.468;2022-12-07T03:42:15;4.10;99.90
22065;DHT22;11197;53.110;8.468;2022-12-07T03:44:42;4.10;99.90
22065;DHT22;11197;53.110;8.468;2022-12-07T03:47:37;4.10;99.90
22065;DHT22;11197;53.110;8.468;2022-12-07T03:50:28;4.10;99.90
22065;DHT22;11197;53.110;8.468;2022-12-07T03:53:02;4.10;99.90
22065;DHT22;11197;53.110;8.468;2022-12-07T03:55:33;4.00;99.90
22065;DHT22;11197;53.110;8.468;2022-12-07T03:58:07;4.10;99.90
22065;DHT22;11197;53.110;8.468;2022-12-07T04:00:34;4.10;99.90
22065;DHT22;11197;53.110;8.468;2022-12-07T04:03:00;4.10;99.90
22065;DHT22;11197;53.110;8.468;2022-12-07T04:05:26;4.10;99.90
22065;DHT22;11197;53.110;8.468;2022-12-07T04:07:52;4.10;99.90
22065;DHT22;11197;53.110;8.468;2022-12-07T04:10:18;4.00;99.90
22065;DHT22;11197;53.110;8.468;2022-12-07T04:12:44;4.00;99.90
22065;DHT22;11197;53.110;8.468;2022-12-07T04:15:11;4.00;99.90
22065;DHT22;11197;53.110;8.468;2022-12-07T04:17:37;4.00;99.90
22065;DHT22;11197;53.110;8.468;2022-12-07T04:20:04;3.90;99.90
22065;DHT22;11197;53.110;8.468;2022-12-07T04:22:30;3.90;99.90
22065;DHT22;11197;53.110;8.468;2022-12-07T04:24:56;3.90;99.90
22065;DHT22;11197;53.110;8.468;2022-12-07T04:27:22;3.90;99.90
22065;DHT22;11197;53.110;8.468;2022-12-07T04:29:48;3.90;99.90
22065;DHT22;11197;53.110;8.468;2022-12-07T04:32:14;3.90;99.90
22065;DHT22;11197;53.110;8.468;2022-12-07T04:34:40;3.90;99.90
22065;DHT22;11197;53.110;8.468;2022-12-07T04:37:08;3.80;99.90
22065;DHT22;11197;53.110;8.468;2022-12-07T04:39:34;3.90;99.90
22065;DHT22;11197;53.110;8.468;2022-12-07T04:42:01;3.80;99.90
22065;DHT22;11197;53.110;8.468;2022-12-07T04:44:28;3.80;99.90
22065;DHT22;11197;53.110;8.468;2022-12-07T04:46:54;3.80;99.90
22065;DHT22;11197;53.110;8.468;2022-12-07T04:49:20;3.80;99.90
22065;DHT22;11197;53.110;8.468;2022-12-07T04:51:47;3.80;99.90
22065;DHT22;11197;53.110;8.468;2022-12-07T04:54:14;3.80;99.90
22065;DHT22;11197;53.110;8.468;2022-12-07T04:56:40;3.80;99.90
22065;DHT22;11197;53.110;8.468;2022-12-07T04:59:06;3.80;99.90
22065;DHT22;11197;53.110;8.468;2022-12-07T05:01:33;3.80;99.90
22065;DHT22;11197;53.110;8.468;2022-12-07T05:03:59;3.70;99.90
22065;DHT22;11197;53.110;8.468;2022-12-07T05:06:25;3.70;99.90
22065;DHT22;11197;53.110;8.468;2022-12-07T05:08:52;3.70;99.90
22065;DHT22;11197;53.110;8.468;2022-12-07T05:11:18;3.70;99.90
22065;DHT22;11197;53.110;8.468;2022-12-07T05:14:05;3.80;99.90
22065;DHT22;11197;53.110;8.468;2022-12-07T05:16:31;3.70;99.90
22065;DHT22;11197;53.110;8.468;2022-12-07T05:18:58;3.70;99.90
22065;DHT22;11197;53.110;8.468;2022-12-07T05:21:24;3.70;99.90
22065;DHT22;11197;53.110;8.468;2022-12-07T05:23:51;3.70;99.90
22065;DHT22;11197;53.110;8.468;2022-12-07T05:26:17;3.70;99.90
22065;DHT22;11197;53.110;8.468;2022-12-07T05:28:43;3.70;99.90
22065;DHT22;11197;53.110;8.468;2022-12-07T05:31:09;3.70;99.90
22065;DHT22;11197;53.110;8.468;2022-12-07T05:33:36;3.70;99.90
22065;DHT22;11197;53.110;8.468;2022-12-07T05:36:02;3.70;99.90
22065;DHT22;11197;53.110;8.468;2022-12-07T05:38:34;3.60;99.90
22065;DHT22;11197;53.110;8.468;2022-12-07T05:41:04;3.70;99.90
22065;DHT22;11197;53.110;8.468;2022-12-07T05:43:31;3.70;99.90
22065;DHT22;11197;53.110;8.468;2022-12-07T05:45:57;3.60;99.90
22065;DHT22;11197;53.110;8.468;2022-12-07T05:48:24;3.70;99.90
22065;DHT22;11197;53.110;8.468;2022-12-07T05:50:51;3.60;99.90
22065;DHT22;11197;53.110;8.468;2022-12-07T05:53:18;3.60;99.90
22065;DHT22;11197;53.110;8.468;2022-12-07T05:55:44;3.60;99.90
22065;DHT22;11197;53.110;8.468;2022-12-07T05:58:10;3.60;99.90
22065;DHT22;11197;53.110;8.468;2022-12-07T06:00:55;3.60;99.90
22065;DHT22;11197;53.110;8.468;2022-12-07T06:03:22;3.60;99.90
22065;DHT22;11197;53.110;8.468;2022-12-07T06:05:48;3.60;99.90
22065;DHT22;11197;53.110;8.468;2022-12-07T06:08:14;3.60;99.90
22065;DHT22;11197;53.110;8.468;2022-12-07T06:10:41;3.60;99.90
22065;DHT22;11197;53.110;8.468;2022-12-07T06:13:08;3.60;99.90
22065;DHT22;11197;53.110;8.468;2022-12-07T06:15:37;3.60;99.90
22065;DHT22;11197;53.110;8.468;2022-12-07T06:18:03;3.70;99.90
22065;DHT22;11197;53.110;8.468;2022-12-07T06:20:29;3.70;99.90
22065;DHT22;11197;53.110;8.468;2022-12-07T06:22:55;3.70;99.90
22065;DHT22;11197;53.110;8.468;2022-12-07T06:25:21;3.70;99.90
22065;DHT22;11197;53.110;8.468;2022-12-07T06:27:47;3.70;99.90
22065;DHT22;11197;53.110;8.468;2022-12-07T06:30:14;3.70;99.90
22065;DHT22;11197;53.110;8.468;2022-12-07T06:32:40;3.60;99.90
22065;DHT22;11197;53.110;8.468;2022-12-07T06:35:06;3.70;99.90
22065;DHT22;11197;53.110;8.468;2022-12-07T06:37:32;3.70;99.90
22065;DHT22;11197;53.110;8.468;2022-12-07T06:39:58;3.70;99.90
22065;DHT22;11197;53.110;8.468;2022-12-07T06:42:24;3.70;99.90
22065;DHT22;11197;53.110;8.468;2022-12-07T06:44:50;3.70;99.90
22065;DHT22;11197;53.110;8.468;2022-12-07T06:47:16;3.70;99.90
22065;DHT22;11197;53.110;8.468;2022-12-07T06:49:42;3.70;99.90
22065;DHT22;11197;53.110;8.468;2022-12-07T06:52:08;3.70;99.90
22065;DHT22;11197;53.110;8.468;2022-12-07T06:54:35;3.80;99.90
22065;DHT22;11197;53.110;8.468;2022-12-07T06:57:01;3.70;99.90
22065;DHT22;11197;53.110;8.468;2022-12-07T06:59:28;3.70;99.90
22065;DHT22;11197;53.110;8.468;2022-12-07T07:01:54;3.80;99.90
22065;DHT22;11197;53.110;8.468;2022-12-07T07:04:20;3.70;99.90
22065;DHT22;11197;53.110;8.468;2022-12-07T07:06:46;3.80;99.90
22065;DHT22;11197;53.110;8.468;2022-12-07T07:09:12;3.90;99.90
22065;DHT22;11197;53.110;8.468;2022-12-07T07:11:38;3.90;99.90
22065;DHT22;11197;53.110;8.468;2022-12-07T07:14:04;3.90;99.90
22065;DHT22;11197;53.110;8.468;2022-12-07T07:16:31;3.90;99.90
22065;DHT22;11197;53.110;8.468;2022-12-07T07:18:57;3.90;99.90
22065;DHT22;11197;53.110;8.468;2022-12-07T07:21:23;3.90;99.90
22065;DHT22;11197;53.110;8.468;2022-12-07T07:23:49;3.80;99.90
22065;DHT22;11197;53.110;8.468;2022-12-07T07:26:15;3.80;99.90
22065;DHT22;11197;53.110;8.468;2022-12-07T07:28:41;3.80;99.90
22065;DHT22;11197;53.110;8.468;2022-12-07T07:31:07;3.80;99.90
22065;DHT22;11197;53.110;8.468;2022-12-07T07:33:33;3.80;99.90
22065;DHT22;11197;53.110;8.468;2022-12-07T07:35:59;3.80;99.90
22065;DHT22;11197;53.110;8.468;2022-12-07T07:38:25;3.70;99.90
22065;DHT22;11197;53.110;8.468;2022-12-07T07:40:51;3.70;99.90
22065;DHT22;11197;53.110;8.468;2022-12-07T07:43:17;3.70;99.90
22065;DHT22;11197;53.110;8.468;2022-12-07T07:45:44;3.70;99.90
22065;DHT22;11197;53.110;8.468;2022-12-07T07:48:11;3.70;99.90
22065;DHT22;11197;53.110;8.468;2022-12-07T07:50:37;3.70;99.90
22065;DHT22;11197;53.110;8.468;2022-12-07T07:53:03;3.70;99.90
22065;DHT22;11197;53.110;8.468;2022-12-07T07:55:29;3.70;99.90
22065;DHT22;11197;53.110;8.468;2022-12-07T07:57:55;3.70;99.90
22065;DHT22;11197;53.110;8.468;2022-12-07T08:00:21;3.70;99.90
22065;DHT22;11197;53.110;8.468;2022-12-07T08:02:47;3.70;99.90
22065;DHT22;11197;53.110;8.468;2022-12-07T08:05:15;3.60;99.90
22065;DHT22;11197;53.110;8.468;2022-12-07T08:07:41;3.60;99.90
22065;DHT22;11197;53.110;8.468;2022-12-07T08:10:09;3.70;99.90
22065;DHT22;11197;53.110;8.468;2022-12-07T08:12:37;3.70;99.90
22065;DHT22;11197;53.110;8.468;2022-12-07T08:15:25;3.70;99.90
22065;DHT22;11197;53.110;8.468;2022-12-07T08:17:51;3.80;99.90
22065;DHT22;11197;53.110;8.468;2022-12-07T08:20:16;3.80;99.90
22065;DHT22;11197;53.110;8.468;2022-12-07T08:22:43;3.80;99.90
22065;DHT22;11197;53.110;8.468;2022-12-07T08:25:09;3.80;99.90
22065;DHT22;11197;53.110;8.468;2022-12-07T08:27:35;3.80;99.90
22065;DHT22;11197;53.110;8.468;2022-12-07T08:30:00;3.80;99.90
22065;DHT22;11197;53.110;8.468;2022-12-07T08:32:26;3.80;99.90
22065;DHT22;11197;53.110;8.468;2022-12-07T08:34:55;3.80;99.90
22065;DHT22;11197;53.110;8.468;2022-12-07T08:37:21;3.80;99.90
22065;DHT22;11197;53.110;8.468;2022-12-07T08:39:47;3.80;99.90
22065;DHT22;11197;53.110;8.468;2022-12-07T08:42:13;3.80;99.90
22065;DHT22;11197;53.110;8.468;2022-12-07T08:44:39;3.80;99.90
22065;DHT22;11197;53.110;8.468;2022-12-07T08:47:07;3.80;99.90
22065;DHT22;11197;53.110;8.468;2022-12-07T08:49:40;3.80;99.90
22065;DHT22;11197;53.110;8.468;2022-12-07T08:52:07;3.80;99.90
22065;DHT22;11197;53.110;8.468;2022-12-07T08:54:35;3.80;99.90
22065;DHT22;11197;53.110;8.468;2022-12-07T08:57:02;3.80;99.90
22065;DHT22;11197;53.110;8.468;2022-12-07T08:59:29;3.80;99.90
22065;DHT22;11197;53.110;8.468;2022-12-07T09:01:55;3.80;99.90
22065;DHT22;11197;53.110;8.468;2022-12-07T09:04:21;3.90;99.90
22065;DHT22;11197;53.110;8.468;2022-12-07T09:06:47;3.80;99.90
22065;DHT22;11197;53.110;8.468;2022-12-07T09:09:14;3.90;99.90
22065;DHT22;11197;53.110;8.468;2022-12-07T09:11:40;3.90;99.90
22065;DHT22;11197;53.110;8.468;2022-12-07T09:14:06;3.90;99.90
22065;DHT22;11197;53.110;8.468;2022-12-07T09:16:32;3.90;99.90
22065;DHT22;11197;53.110;8.468;2022-12-07T09:18:58;3.90;99.90
22065;DHT22;11197;53.110;8.468;2022-12-07T09:21:24;3.90;99.90
22065;DHT22;11197;53.110;8.468;2022-12-07T09:23:50;3.90;99.90
22065;DHT22;11197;53.110;8.468;2022-12-07T09:26:19;3.90;99.90
22065;DHT22;11197;53.110;8.468;2022-12-07T09:28:45;3.90;99.90
22065;DHT22;11197;53.110;8.468;2022-12-07T09:31:11;3.90;99.90
22065;DHT22;11197;53.110;8.468;2022-12-07T09:33:37;3.90;99.90
22065;DHT22;11197;53.110;8.468;2022-12-07T09:36:03;3.90;99.90
22065;DHT22;11197;53.110;8.468;2022-12-07T09:38:29;3.90;99.90
22065;DHT22;11197;53.110;8.468;2022-12-07T09:41:07;3.90;99.90
22065;DHT22;11197;53.110;8.468;2022-12-07T09:43:35;3.90;99.90
22065;DHT22;11197;53.110;8.468;2022-12-07T09:46:03;3.90;99.90
22065;DHT22;11197;53.110;8.468;2022-12-07T09:48:34;3.90;99.90
22065;DHT22;11197;53.110;8.468;2022-12-07T09:51:03;3.90;99.90
22065;DHT22;11197;53.110;8.468;2022-12-07T09:53:37;4.00;99.90
22065;DHT22;11197;53.110;8.468;2022-12-07T09:56:04;4.00;99.90
22065;DHT22;11197;53.110;8.468;2022-12-07T09:58:32;4.00;99.90
22065;DHT22;11197;53.110;8.468;2022-12-07T10:01:17;4.00;99.90
22065;DHT22;11197;53.110;8.468;2022-12-07T10:03:54;4.00;99.90
22065;DHT22;11197;53.110;8.468;2022-12-07T10:06:21;4.00;99.90
22065;DHT22;11197;53.110;8.468;2022-12-07T10:08:48;4.00;99.90
22065;DHT22;11197;53.110;8.468;2022-12-07T10:11:14;4.00;99.90
22065;DHT22;11197;53.110;8.468;2022-12-07T10:13:51;4.10;99.90
22065;DHT22;11197;53.110;8.468;2022-12-07T10:19:31;4.10;99.90
22065;DHT22;11197;53.110;8.468;2022-12-07T10:22:04;4.10;99.90
22065;DHT22;11197;53.110;8.468;2022-12-07T10:24:30;4.10;99.90
22065;DHT22;11197;53.110;8.468;2022-12-07T10:26:58;4.10;99.90
22065;DHT22;11197;53.110;8.468;2022-12-07T10:29:36;4.10;99.90
22065;DHT22;11197;53.110;8.468;2022-12-07T10:35:18;4.10;99.90
22065;DHT22;11197;53.110;8.468;2022-12-07T10:37:44;4.20;99.90
22065;DHT22;11197;53.110;8.468;2022-12-07T10:40:33;4.20;99.90
22065;DHT22;11197;53.110;8.468;2022-12-07T10:45:30;4.20;99.90
22065;DHT22;11197;53.110;8.468;2022-12-07T10:48:10;4.20;99.90
22065;DHT22;11197;53.110;8.468;2022-12-07T10:53:57;4.20;99.90
22065;DHT22;11197;53.110;8.468;2022-12-07T10:59:47;4.30;99.90
22065;DHT22;11197;53.110;8.468;2022-12-07T11:02:44;4.30;99.90
22065;DHT22;11197;53.110;8.468;2022-12-07T11:13:16;4.40;99.90
22065;DHT22;11197;53.110;8.468;2022-12-07T11:16:14;4.50;99.90
22065;DHT22;11197;53.110;8.468;2022-12-07T11:21:44;4.50;99.90
22065;DHT22;11197;53.110;8.468;2022-12-07T11:24:18;4.50;99.90
22065;DHT22;11197;53.110;8.468;2022-12-07T11:35:54;4.60;99.90
22065;DHT22;11197;53.110;8.468;2022-12-07T11:38:49;4.60;99.90
22065;DHT22;11197;53.110;8.468;2022-12-07T11:41:21;4.60;99.90
22065;DHT22;11197;53.110;8.468;2022-12-07T11:43:56;4.60;99.90
22065;DHT22;11197;53.110;8.468;2022-12-07T11:46:55;4.60;99.90
22065;DHT22;11197;53.110;8.468;2022-12-07T11:49:47;4.70;99.90
22065;DHT22;11197;53.110;8.468;2022-12-07T11:52:32;4.70;99.90
22065;DHT22;11197;53.110;8.468;2022-12-07T12:03:50;4.80;99.90
22065;DHT22;11197;53.110;8.468;2022-12-07T12:06:16;4.80;99.90
22065;DHT22;11197;53.110;8.468;2022-12-07T12:08:47;4.80;99.90
22065;DHT22;11197;53.110;8.468;2022-12-07T12:14:37;4.90;99.90
22065;DHT22;11197;53.110;8.468;2022-12-07T12:17:47;4.90;99.90
22065;DHT22;11197;53.110;8.468;2022-12-07T12:20:21;4.90;99.90
22065;DHT22;11197;53.110;8.468;2022-12-07T12:25:41;5.00;99.90
22065;DHT22;11197;53.110;8.468;2022-12-07T12:28:22;5.00;99.90
22065;DHT22;11197;53.110;8.468;2022-12-07T12:31:05;5.10;99.90
22065;DHT22;11197;53.110;8.468;2022-12-07T12:33:33;5.00;99.90
22065;DHT22;11197;53.110;8.468;2022-12-07T12:47:03;5.10;99.90
22065;DHT22;11197;53.110;8.468;2022-12-07T12:49:35;5.10;99.90
22065;DHT22;11197;53.110;8.468;2022-12-07T12:57:30;5.20;99.90
22065;DHT22;11197;53.110;8.468;2022-12-07T12:59:57;5.20;99.90
22065;DHT22;11197;53.110;8.468;2022-12-07T13:02:25;5.20;99.90
22065;DHT22;11197;53.110;8.468;2022-12-07T13:04:53;5.20;99.90
22065;DHT22;11197;53.110;8.468;2022-12-07T13:08:33;5.20;99.90
22065;DHT22;11197;53.110;8.468;2022-12-07T13:10:45;5.20;99.90
22065;DHT22;11197;53.110;8.468;2022-12-07T13:15:51;5.30;99.90
22065;DHT22;11197;53.110;8.468;2022-12-07T13:20:56;5.30;99.90
22065;DHT22;11197;53.110;8.468;2022-12-07T13:26:19;5.40;99.90
22065;DHT22;11197;53.110;8.468;2022-12-07T13:29:04;5.30;99.90
22065;DHT22;11197;53.110;8.468;2022-12-07T13:31:51;5.30;99.90
22065;DHT22;11197;53.110;8.468;2022-12-07T13:34:36;5.20;99.90
22065;DHT22;11197;53.110;8.468;2022-12-07T13:39:51;5.10;99.90
22065;DHT22;11197;53.110;8.468;2022-12-07T13:42:27;5.10;99.90
22065;DHT22;11197;53.110;8.468;2022-12-07T13:44:55;5.10;99.90
22065;DHT22;11197;53.110;8.468;2022-12-07T13:47:33;5.00;99.90
22065;DHT22;11197;53.110;8.468;2022-12-07T13:50:00;5.00;99.90
22065;DHT22;11197;53.110;8.468;2022-12-07T13:52:30;5.00;99.90
22065;DHT22;11197;53.110;8.468;2022-12-07T13:57:26;4.90;99.90
22065;DHT22;11197;53.110;8.468;2022-12-07T13:59:52;4.90;99.90
22065;DHT22;11197;53.110;8.468;2022-12-07T14:02:33;4.90;99.90
22065;DHT22;11197;53.110;8.468;2022-12-07T14:05:09;4.90;99.90
22065;DHT22;11197;53.110;8.468;2022-12-07T14:07:59;4.90;99.90
22065;DHT22;11197;53.110;8.468;2022-12-07T14:10:37;4.80;99.90
22065;DHT22;11197;53.110;8.468;2022-12-07T14:13:44;4.80;99.90
22065;DHT22;11197;53.110;8.468;2022-12-07T14:18:44;4.80;99.90
22065;DHT22;11197;53.110;8.468;2022-12-07T14:23:37;4.80;99.90
22065;DHT22;11197;53.110;8.468;2022-12-07T14:26:12;4.80;99.90
22065;DHT22;11197;53.110;8.468;2022-12-07T14:28:43;4.70;99.90
22065;DHT22;11197;53.110;8.468;2022-12-07T14:31:17;4.70;99.90
22065;DHT22;11197;53.110;8.468;2022-12-07T14:33:43;4.70;99.90
22065;DHT22;11197;53.110;8.468;2022-12-07T14:36:11;4.70;99.90
22065;DHT22;11197;53.110;8.468;2022-12-07T14:38:37;4.70;99.90
22065;DHT22;11197;53.110;8.468;2022-12-07T14:41:04;4.70;99.90
22065;DHT22;11197;53.110;8.468;2022-12-07T14:43:49;4.70;99.90
22065;DHT22;11197;53.110;8.468;2022-12-07T14:46:16;4.70;99.90
22065;DHT22;11197;53.110;8.468;2022-12-07T14:48:42;4.70;99.90
22065;DHT22;11197;53.110;8.468;2022-12-07T14:51:10;4.70;99.90
22065;DHT22;11197;53.110;8.468;2022-12-07T14:53:42;4.60;99.90
22065;DHT22;11197;53.110;8.468;2022-12-07T14:56:09;4.60;99.90
22065;DHT22;11197;53.110;8.468;2022-12-07T14:58:35;4.60;99.90
22065;DHT22;11197;53.110;8.468;2022-12-07T15:01:01;4.50;99.90
22065;DHT22;11197;53.110;8.468;2022-12-07T15:03:27;4.60;99.90
22065;DHT22;11197;53.110;8.468;2022-12-07T15:05:53;4.50;99.90
22065;DHT22;11197;53.110;8.468;2022-12-07T15:08:19;4.50;99.90
22065;DHT22;11197;53.110;8.468;2022-12-07T15:10:45;4.50;99.90
22065;DHT22;11197;53.110;8.468;2022-12-07T15:13:11;4.40;99.90
22065;DHT22;11197;53.110;8.468;2022-12-07T15:15:56;4.50;99.90
22065;DHT22;11197;53.110;8.468;2022-12-07T15:18:23;4.50;99.90
22065;DHT22;11197;53.110;8.468;2022-12-07T15:20:50;4.50;99.90
22065;DHT22;11197;53.110;8.468;2022-12-07T15:23:17;4.40;99.90
22065;DHT22;11197;53.110;8.468;2022-12-07T15:25:45;4.40;99.90
22065;DHT22;11197;53.110;8.468;2022-12-07T15:28:11;4.30;99.90
22065;DHT22;11197;53.110;8.468;2022-12-07T15:30:38;4.30;99.90
22065;DHT22;11197;53.110;8.468;2022-12-07T15:33:04;4.30;99.90
22065;DHT22;11197;53.110;8.468;2022-12-07T15:35:30;4.20;99.90
22065;DHT22;11197;53.110;8.468;2022-12-07T15:37:56;4.20;99.90
22065;DHT22;11197;53.110;8.468;2022-12-07T15:40:22;4.20;99.90
22065;DHT22;11197;53.110;8.468;2022-12-07T15:42:47;4.20;99.90
22065;DHT22;11197;53.110;8.468;2022-12-07T15:45:13;4.10;99.90
22065;DHT22;11197;53.110;8.468;2022-12-07T15:47:44;4.10;99.90
22065;DHT22;11197;53.110;8.468;2022-12-07T15:50:15;4.10;99.90
22065;DHT22;11197;53.110;8.468;2022-12-07T15:52:42;4.10;99.90
22065;DHT22;11197;53.110;8.468;2022-12-07T15:55:09;4.10;99.90
22065;DHT22;11197;53.110;8.468;2022-12-07T15:57:37;4.10;99.90
22065;DHT22;11197;53.110;8.468;2022-12-07T16:00:08;4.10;99.90
22065;DHT22;11197;53.110;8.468;2022-12-07T16:02:36;4.00;99.90
22065;DHT22;11197;53.110;8.468;2022-12-07T16:05:02;4.10;99.90
22065;DHT22;11197;53.110;8.468;2022-12-07T16:07:28;4.10;99.90
22065;DHT22;11197;53.110;8.468;2022-12-07T16:09:54;4.10;99.90
22065;DHT22;11197;53.110;8.468;2022-12-07T16:12:20;4.00;99.90
22065;DHT22;11197;53.110;8.468;2022-12-07T16:14:46;4.10;99.90
22065;DHT22;11197;53.110;8.468;2022-12-07T16:17:12;4.10;99.90
22065;DHT22;11197;53.110;8.468;2022-12-07T16:19:38;4.00;99.90
22065;DHT22;11197;53.110;8.468;2022-12-07T16:22:04;4.00;99.90
22065;DHT22;11197;53.110;8.468;2022-12-07T16:24:31;4.10;99.90
22065;DHT22;11197;53.110;8.468;2022-12-07T16:26:57;4.00;99.90
22065;DHT22;11197;53.110;8.468;2022-12-07T16:29:25;4.10;99.90
22065;DHT22;11197;53.110;8.468;2022-12-07T16:31:51;4.00;99.90
22065;DHT22;11197;53.110;8.468;2022-12-07T16:34:18;4.00;99.90
22065;DHT22;11197;53.110;8.468;2022-12-07T16:36:45;4.00;99.90
22065;DHT22;11197;53.110;8.468;2022-12-07T16:39:11;4.00;99.90
22065;DHT22;11197;53.110;8.468;2022-12-07T16:41:38;4.00;99.90
22065;DHT22;11197;53.110;8.468;2022-12-07T16:44:06;4.00;99.90
22065;DHT22;11197;53.110;8.468;2022-12-07T16:46:34;4.00;99.90
22065;DHT22;11197;53.110;8.468;2022-12-07T16:49:01;4.00;99.90
22065;DHT22;11197;53.110;8.468;2022-12-07T16:51:28;4.00;99.90
22065;DHT22;11197;53.110;8.468;2022-12-07T16:53:54;4.00;99.90
22065;DHT22;11197;53.110;8.468;2022-12-07T16:56:21;4.00;99.90
22065;DHT22;11197;53.110;8.468;2022-12-07T16:58:47;3.90;99.90
22065;DHT22;11197;53.110;8.468;2022-12-07T17:01:17;3.90;99.90
22065;DHT22;11197;53.110;8.468;2022-12-07T17:03:45;3.90;99.90
22065;DHT22;11197;53.110;8.468;2022-12-07T17:08:41;3.90;99.90
22065;DHT22;11197;53.110;8.468;2022-12-07T17:11:16;3.90;99.90
22065;DHT22;11197;53.110;8.468;2022-12-07T17:13:43;3.90;99.90
22065;DHT22;11197;53.110;8.468;2022-12-07T17:16:28;3.90;99.90
22065;DHT22;11197;53.110;8.468;2022-12-07T17:18:55;3.90;99.90
22065;DHT22;11197;53.110;8.468;2022-12-07T17:21:21;3.90;99.90
22065;DHT22;11197;53.110;8.468;2022-12-07T17:23:48;3.90;99.90
22065;DHT22;11197;53.110;8.468;2022-12-07T17:26:18;3.90;99.90
22065;DHT22;11197;53.110;8.468;2022-12-07T17:28:44;3.90;99.90
22065;DHT22;11197;53.110;8.468;2022-12-07T17:31:12;4.00;99.90
22065;DHT22;11197;53.110;8.468;2022-12-07T17:33:39;4.00;99.90
22065;DHT22;11197;53.110;8.468;2022-12-07T17:36:20;4.00;99.90
22065;DHT22;11197;53.110;8.468;2022-12-07T17:38:47;4.00;99.90
22065;DHT22;11197;53.110;8.468;2022-12-07T17:41:22;4.00;99.90
22065;DHT22;11197;53.110;8.468;2022-12-07T17:44:12;4.00;99.90
22065;DHT22;11197;53.110;8.468;2022-12-07T17:46:39;4.00;99.90
22065;DHT22;11197;53.110;8.468;2022-12-07T17:49:05;4.00;99.90
22065;DHT22;11197;53.110;8.468;2022-12-07T17:51:31;3.90;99.90
22065;DHT22;11197;53.110;8.468;2022-12-07T17:54:17;4.00;99.90
22065;DHT22;11197;53.110;8.468;2022-12-07T17:56:44;4.00;99.90
22065;DHT22;11197;53.110;8.468;2022-12-07T17:59:10;3.90;99.90
22065;DHT22;11197;53.110;8.468;2022-12-07T18:01:36;3.90;99.90
22065;DHT22;11197;53.110;8.468;2022-12-07T18:04:02;3.90;99.90